»·PEaware :: AAL601 KLAX-KLAS

AAL601 :: KLAX-KLAS

FLIGHT INFORMATION

Flight Status: Arrived
Operator:
American Airlines
More flights by this operator :: More flights under this callsign
Pilot: Jordan S. (14404)
Aircraft: BOEING 757-200
(B752)
More flights by this aircraft type
Origin: KLAX Los Angeles Intl
United States
Destination: KLAS McCarran Intl
United States
More flights between these airports :: More routes between these airports
Route: +ORCKA1 MISEN KEPEC4
File this flight plan on PilotEdge
Remarks:
Altitude:
(Current/Filed)
25,000ft
Speed:
(Current/Filed)
470kts
Departed: 12-Jun-17 05:35 PM
Arrived: 12-Jun-17 06:15 PM
Distance/Time
Traveled:
204nm/0:40
Distance/Time
To Go:
Arrived

Flight Plot

Page will automatically refresh every two minutes.

Flight plan parsing failed; only flown route is shown


Map Options




Map Legend


Flown Route
Filed Route
Departure Airport
Arrival Airport
Navaid (VOR, NDB)
Fix

Horizontal Profiles

Position Reports

Time Latitude Longitude Heading Altitude Ground
Speed
12-Jun-17 17:24 33.941141 -118.400229 95 136ft 0kts
12-Jun-17 17:25 33.941150 -118.400352 95 136ft 3kts
12-Jun-17 17:26 33.941418 -118.401039 169 136ft 3kts
12-Jun-17 17:27 33.941562 -118.401042 185 136ft 0kts
12-Jun-17 17:28 33.941561 -118.401042 186 136ft 0kts
12-Jun-17 17:29 33.941561 -118.401042 186 136ft 0kts
12-Jun-17 17:30 33.941303 -118.401107 203 137ft 3kts
12-Jun-17 17:31 33.941094 -118.401295 227 136ft 0kts
12-Jun-17 17:32 33.941093 -118.401295 227 136ft 0kts
12-Jun-17 17:33 33.941091 -118.401298 227 136ft 0kts
12-Jun-17 17:34 33.940143 -118.400832 149 136ft 1kts
12-Jun-17 17:35 33.939216 -118.395657 84 136ft 38kts
12-Jun-17 17:36 33.940532 -118.382884 83 136ft 34kts
12-Jun-17 17:37 33.939030 -118.388094 262 137ft 124kts
12-Jun-17 17:38 33.930825 -118.457523 259 2204ft 241kts
12-Jun-17 17:39 33.903908 -118.534304 231 4684ft 265kts
12-Jun-17 17:40 33.837407 -118.526764 121 7296ft 293kts
12-Jun-17 17:41 33.855098 -118.448401 24 9938ft 284kts
12-Jun-17 17:42 33.926924 -118.405983 22 12685ft 306kts
12-Jun-17 17:43 33.997168 -118.326610 49 13053ft 401kts
12-Jun-17 17:44 34.060005 -118.218798 52 14404ft 416kts
12-Jun-17 17:45 34.123347 -118.104590 52 16149ft 431kts
12-Jun-17 17:46 34.189850 -117.982936 52 17949ft 446kts
12-Jun-17 17:47 34.258682 -117.857667 52 19752ft 457kts
12-Jun-17 17:48 34.315756 -117.752691 52 21232ft 466kts
12-Jun-17 17:49 34.376984 -117.640135 52 22794ft 475kts
12-Jun-17 17:50 34.448971 -117.505199 52 24622ft 485kts
12-Jun-17 17:51 34.522186 -117.368998 51 25024ft 488kts
12-Jun-17 17:52 34.595916 -117.231779 52 25019ft 489kts
12-Jun-17 17:53 34.668328 -117.096599 52 24569ft 487kts
12-Jun-17 17:54 34.740996 -116.960204 52 23938ft 483kts
12-Jun-17 17:55 34.813371 -116.823994 52 23939ft 483kts
12-Jun-17 17:56 34.886144 -116.686524 52 23940ft 484kts
12-Jun-17 17:57 34.958215 -116.549846 52 23964ft 483kts
12-Jun-17 17:58 35.030272 -116.412665 52 23968ft 483kts
12-Jun-17 17:59 35.103524 -116.278985 47 23956ft 482kts
12-Jun-17 18:00 35.203278 -116.180515 34 23969ft 472kts
12-Jun-17 18:01 35.303723 -116.077826 35 23968ft 473kts
12-Jun-17 18:02 35.402622 -115.973836 35 23968ft 473kts
12-Jun-17 18:03 35.500947 -115.869669 36 23936ft 457kts
12-Jun-17 18:04 35.587631 -115.775121 35 23825ft 389kts
12-Jun-17 18:05 35.671631 -115.684430 38 20187ft 423kts
12-Jun-17 18:06 35.765357 -115.598889 11 16345ft 426kts
12-Jun-17 18:07 35.877573 -115.578381 4 13490ft 408kts
12-Jun-17 18:08 35.974326 -115.529271 41 12884ft 358kts
12-Jun-17 18:09 36.012110 -115.426482 65 12878ft 306kts
12-Jun-17 18:10 36.021443 -115.325748 92 12197ft 312kts
12-Jun-17 18:11 36.013732 -115.216577 93 10230ft 328kts
12-Jun-17 18:12 36.011816 -115.101308 86 7671ft 350kts
12-Jun-17 18:13 36.033188 -114.989570 46 5128ft 357kts
12-Jun-17 18:14 36.087529 -114.991079 248 3889ft 289kts
12-Jun-17 18:15 36.073145 -115.068704 271 3246ft 208kts
12-Jun-17 18:16 36.073629 -115.134315 272 2155ft 177kts
12-Jun-17 18:17 36.073437 -115.163556 242 2152ft 0kts

Navigation Log

Ident Type
Flight plan parsing failed, navigation log unavailable